Time;durP1;ratioP1;P1;durP2;ratioP2;P2;SDS_P1;SDS_P2;PMS_P1;PMS_P2;Temp;Humidity;BMP_temperature;BMP_pressure;BME280_temperature;BME280_humidity;BME280_pressure;Samples;Min_cycle;Max_cycle;Signal;HPM_P1;HPM_P2
2023/01/19 00:01:25;;;;;;;302.10;136.30;;;;;;;;;;4923147;28;20572;-53
2023/01/19 00:03:51;;;;;;;339.93;145.73;;;;;;;;;;4923651;28;20251;-53
2023/01/19 00:06:17;;;;;;;266.30;117.37;;;;;;;;;;4923389;28;20215;-53
2023/01/19 00:08:44;;;;;;;292.70;120.83;;;;;;;;;;4922774;28;20563;-53
2023/01/19 00:11:11;;;;;;;285.33;126.40;;;;;;;;;;4922758;29;20173;-53
2023/01/19 00:13:37;;;;;;;349.00;148.87;;;;;;;;;;4922906;28;20706;-52
2023/01/19 00:16:03;;;;;;;331.43;130.90;;;;;;;;;;4922735;28;20220;-53
2023/01/19 00:18:29;;;;;;;294.73;126.63;;;;;;;;;;4922690;28;20223;-52
2023/01/19 00:20:55;;;;;;;256.00;106.90;;;;;;;;;;4921180;28;20670;-53
2023/01/19 00:23:21;;;;;;;314.93;131.53;;;;;;;;;;4923033;29;20204;-53
2023/01/19 00:25:48;;;;;;;330.83;136.23;;;;;;;;;;4921408;28;20264;-52
2023/01/19 00:28:15;;;;;;;304.37;127.63;;;;;;;;;;4922130;28;20337;-53
2023/01/19 00:30:41;;;;;;;343.77;137.23;;;;;;;;;;4922503;28;20234;-53
2023/01/19 00:33:08;;;;;;;281.23;119.00;;;;;;;;;;4922500;28;20256;-53
2023/01/19 00:35:34;;;;;;;298.80;125.73;;;;;;;;;;4920702;28;20180;-52
2023/01/19 00:38:01;;;;;;;292.23;124.23;;;;;;;;;;4921182;29;20183;-54
2023/01/19 00:40:27;;;;;;;328.03;135.03;;;;;;;;;;4921941;28;20278;-53
2023/01/19 00:42:53;;;;;;;241.87;108.87;;;;;;;;;;4922901;28;20227;-52
2023/01/19 00:45:20;;;;;;;332.07;136.20;;;;;;;;;;4922485;28;20311;-53
2023/01/19 00:47:47;;;;;;;358.43;148.97;;;;;;;;;;4922884;28;20234;-53
2023/01/19 00:50:15;;;;;;;333.03;135.43;;;;;;;;;;4922877;29;20594;-53
2023/01/19 00:52:42;;;;;;;336.17;138.73;;;;;;;;;;4922177;28;20590;-53
2023/01/19 00:55:08;;;;;;;359.57;154.40;;;;;;;;;;4909393;28;20469;-53
2023/01/19 00:57:35;;;;;;;341.37;150.17;;;;;;;;;;4909573;28;20216;-53
2023/01/19 01:00:01;;;;;;;345.10;146.37;;;;;;;;;;4897961;28;20223;-53
2023/01/19 01:02:27;;;;;;;356.07;165.63;;;;;;;;;;4899690;28;20403;-53
2023/01/19 01:04:53;;;;;;;405.57;177.40;;;;;;;;;;4898753;28;20184;-53
2023/01/19 01:07:22;;;;;;;300.63;122.20;;;;;;;;;;4905602;28;20310;-53
2023/01/19 01:09:48;;;;;;;375.60;161.60;;;;;;;;;;4901416;28;20435;-55
2023/01/19 01:12:14;;;;;;;319.50;141.47;;;;;;;;;;4901288;28;20278;-53
2023/01/19 01:14:40;;;;;;;337.10;147.43;;;;;;;;;;4902802;28;20219;-53
2023/01/19 01:17:10;;;;;;;309.33;136.00;;;;;;;;;;4895463;28;20192;-53
2023/01/19 01:19:36;;;;;;;289.50;120.40;;;;;;;;;;4903013;28;20302;-53
2023/01/19 01:22:02;;;;;;;338.43;147.20;;;;;;;;;;4904529;28;20483;-53
2023/01/19 01:24:28;;;;;;;325.83;146.47;;;;;;;;;;4896020;28;20389;-53
2023/01/19 01:26:54;;;;;;;344.60;153.43;;;;;;;;;;4900002;28;20699;-53
2023/01/19 01:29:20;;;;;;;300.30;125.10;;;;;;;;;;4900342;28;20618;-53
2023/01/19 01:31:46;;;;;;;363.70;148.53;;;;;;;;;;4902192;28;20222;-53
2023/01/19 01:34:12;;;;;;;359.07;161.67;;;;;;;;;;4894684;28;20231;-53
2023/01/19 01:36:38;;;;;;;355.10;159.50;;;;;;;;;;4898082;28;20597;-53
2023/01/19 01:39:05;;;;;;;340.00;148.23;;;;;;;;;;4896695;28;21091;-53
2023/01/19 01:41:31;;;;;;;298.83;129.17;;;;;;;;;;4897164;28;20196;-54
2023/01/19 01:43:58;;;;;;;338.70;139.27;;;;;;;;;;4905253;28;20204;-53
2023/01/19 01:46:25;;;;;;;382.17;170.30;;;;;;;;;;4894758;28;20567;-53
2023/01/19 01:49:05;;;;;;;407.27;183.30;;;;;;;;;;4897808;28;20250;-53
2023/01/19 01:51:37;;;;;;;303.40;128.70;;;;;;;;;;4906502;28;20254;-53
2023/01/19 01:54:07;;;;;;;290.97;122.63;;;;;;;;;;4906758;28;20281;-53
2023/01/19 01:56:43;;;;;;;347.63;149.57;;;;;;;;;;4904767;28;20241;-53
2023/01/19 01:59:24;;;;;;;358.93;155.27;;;;;;;;;;4901167;28;20207;-53
2023/01/19 02:04:42;;;;;;;322.37;140.73;;;;;;;;;;4893014;28;20289;-53
2023/01/19 02:15:25;;;;;;;340.27;152.43;;;;;;;;;;4903065;28;20521;-53
2023/01/19 02:17:51;;;;;;;320.43;144.57;;;;;;;;;;4902919;28;20216;-54
2023/01/19 02:20:19;;;;;;;343.60;152.03;;;;;;;;;;4900457;28;20220;-53
2023/01/19 02:22:47;;;;;;;385.30;163.07;;;;;;;;;;4903749;28;20844;-53
2023/01/19 02:25:14;;;;;;;321.37;134.23;;;;;;;;;;4897333;28;20582;-54
2023/01/19 02:27:40;;;;;;;371.87;142.87;;;;;;;;;;4898786;28;20409;-53
2023/01/19 02:30:07;;;;;;;394.13;164.77;;;;;;;;;;4898864;28;20269;-53
2023/01/19 02:32:33;;;;;;;374.63;158.93;;;;;;;;;;4898368;28;20179;-54
2023/01/19 02:34:59;;;;;;;295.30;124.77;;;;;;;;;;4899305;28;20235;-53
2023/01/19 02:37:26;;;;;;;323.97;136.70;;;;;;;;;;4903739;28;20792;-53
2023/01/19 02:39:55;;;;;;;354.43;145.23;;;;;;;;;;4913472;28;20699;-53
2023/01/19 02:42:25;;;;;;;335.43;142.03;;;;;;;;;;4900490;28;20226;-53
2023/01/19 02:44:52;;;;;;;397.80;162.00;;;;;;;;;;4897584;28;20300;-54
2023/01/19 02:47:18;;;;;;;260.37;111.30;;;;;;;;;;4905239;28;20320;-54
2023/01/19 02:49:44;;;;;;;276.53;118.23;;;;;;;;;;4895109;28;20739;-53
2023/01/19 02:52:15;;;;;;;343.93;147.40;;;;;;;;;;4897630;28;20220;-53
2023/01/19 02:54:41;;;;;;;381.70;159.80;;;;;;;;;;4899134;28;20230;-53
2023/01/19 02:57:26;;;;;;;374.57;156.60;;;;;;;;;;4904196;28;21919;-53
2023/01/19 03:00:18;;;;;;;347.93;140.30;;;;;;;;;;4904215;28;20231;-54
2023/01/19 03:02:52;;;;;;;369.77;149.10;;;;;;;;;;4902847;28;20740;-54
2023/01/19 03:05:23;;;;;;;376.13;154.30;;;;;;;;;;4899470;28;20236;-53
2023/01/19 03:07:50;;;;;;;314.60;132.53;;;;;;;;;;4894878;28;20223;-54
2023/01/19 03:10:20;;;;;;;336.63;140.73;;;;;;;;;;4904450;28;20219;-54
2023/01/19 03:12:57;;;;;;;356.73;149.43;;;;;;;;;;4898538;28;20227;-54
2023/01/19 03:15:26;;;;;;;383.03;159.80;;;;;;;;;;4899507;28;20262;-53
2023/01/19 03:17:53;;;;;;;284.43;118.70;;;;;;;;;;4904411;28;20264;-54
2023/01/19 03:20:23;;;;;;;332.87;136.63;;;;;;;;;;4900081;28;20221;-53
2023/01/19 03:22:51;;;;;;;343.97;147.03;;;;;;;;;;4895479;28;20582;-54
2023/01/19 03:25:19;;;;;;;375.73;155.43;;;;;;;;;;4903908;28;20216;-53
2023/01/19 03:27:46;;;;;;;329.77;138.57;;;;;;;;;;4894734;28;20294;-53
2023/01/19 03:30:18;;;;;;;323.23;136.33;;;;;;;;;;4897841;28;20451;-53
2023/01/19 03:32:47;;;;;;;361.60;147.47;;;;;;;;;;4897310;28;20219;-53
2023/01/19 03:35:15;;;;;;;367.10;150.80;;;;;;;;;;4894307;28;20196;-54
2023/01/19 03:37:43;;;;;;;328.00;132.97;;;;;;;;;;4901593;28;20266;-53
2023/01/19 03:40:10;;;;;;;353.73;147.07;;;;;;;;;;4900776;28;20231;-54
2023/01/19 03:42:37;;;;;;;375.97;157.10;;;;;;;;;;4900668;28;20686;-56
2023/01/19 03:45:03;;;;;;;288.10;119.57;;;;;;;;;;4909104;28;20230;-55
2023/01/19 03:47:29;;;;;;;367.17;152.10;;;;;;;;;;4901647;28;20696;-56
2023/01/19 03:49:56;;;;;;;304.57;125.13;;;;;;;;;;4896027;28;20184;-54
2023/01/19 03:52:29;;;;;;;373.50;148.63;;;;;;;;;;4893070;28;20397;-53
2023/01/19 03:54:55;;;;;;;283.13;116.73;;;;;;;;;;4896552;28;20559;-54
2023/01/19 03:57:21;;;;;;;385.90;153.97;;;;;;;;;;4902744;28;20219;-54
2023/01/19 03:59:48;;;;;;;294.53;117.10;;;;;;;;;;4896402;28;20290;-54
2023/01/19 04:02:14;;;;;;;328.30;138.60;;;;;;;;;;4894430;28;20257;-54
2023/01/19 04:04:40;;;;;;;302.20;123.03;;;;;;;;;;4895694;28;20239;-53
2023/01/19 04:07:06;;;;;;;296.43;116.43;;;;;;;;;;4902931;28;20234;-53
2023/01/19 04:09:32;;;;;;;313.70;128.17;;;;;;;;;;4901914;28;20586;-55
2023/01/19 04:12:00;;;;;;;315.97;133.17;;;;;;;;;;4907752;28;20607;-53
2023/01/19 04:14:26;;;;;;;362.17;151.43;;;;;;;;;;4899975;28;20250;-54
2023/01/19 04:16:52;;;;;;;353.13;148.50;;;;;;;;;;4893932;28;20270;-54
2023/01/19 04:19:18;;;;;;;382.73;151.73;;;;;;;;;;4899092;28;20226;-54
2023/01/19 04:21:44;;;;;;;361.27;142.97;;;;;;;;;;4892476;28;20215;-54
2023/01/19 04:24:10;;;;;;;342.13;132.07;;;;;;;;;;4898864;28;20942;-53
2023/01/19 04:26:36;;;;;;;296.03;126.57;;;;;;;;;;4897379;28;20276;-54
2023/01/19 04:29:03;;;;;;;285.57;114.40;;;;;;;;;;4903207;28;20278;-53
2023/01/19 04:31:30;;;;;;;347.27;138.93;;;;;;;;;;4900492;28;20467;-53
2023/01/19 04:33:56;;;;;;;347.30;141.37;;;;;;;;;;4900588;28;20223;-53
2023/01/19 04:36:22;;;;;;;389.93;155.03;;;;;;;;;;4889098;28;20337;-54
2023/01/19 04:38:48;;;;;;;321.30;124.93;;;;;;;;;;4892955;28;20231;-53
2023/01/19 04:41:14;;;;;;;307.03;123.30;;;;;;;;;;4897326;28;20200;-53
2023/01/19 04:43:40;;;;;;;357.10;148.50;;;;;;;;;;4907637;28;20610;-53
2023/01/19 04:46:06;;;;;;;312.90;120.03;;;;;;;;;;4901927;28;20451;-54
2023/01/19 04:48:32;;;;;;;364.23;150.37;;;;;;;;;;4898218;28;20262;-53
2023/01/19 04:50:58;;;;;;;316.00;124.27;;;;;;;;;;4891764;28;20223;-53
2023/01/19 04:53:24;;;;;;;377.17;150.10;;;;;;;;;;4901761;28;20208;-54
2023/01/19 04:55:54;;;;;;;376.40;161.37;;;;;;;;;;4893834;28;20635;-54
2023/01/19 04:58:20;;;;;;;361.30;148.40;;;;;;;;;;4894247;28;22513;-54
2023/01/19 05:00:46;;;;;;;309.97;126.33;;;;;;;;;;4902455;28;20262;-55
2023/01/19 05:03:12;;;;;;;313.90;133.47;;;;;;;;;;4901238;28;20231;-54
2023/01/19 05:05:38;;;;;;;436.73;187.57;;;;;;;;;;4899551;28;20207;-54
2023/01/19 05:08:04;;;;;;;339.73;141.23;;;;;;;;;;4904690;28;20176;-53
2023/01/19 05:10:30;;;;;;;387.27;163.67;;;;;;;;;;4897764;28;20274;-54
2023/01/19 05:12:56;;;;;;;352.23;152.70;;;;;;;;;;4897757;28;20891;-54
2023/01/19 05:15:22;;;;;;;391.00;159.60;;;;;;;;;;4896065;28;20840;-54
2023/01/19 05:17:48;;;;;;;349.13;148.53;;;;;;;;;;4895188;28;20713;-53
2023/01/19 05:20:16;;;;;;;377.87;159.73;;;;;;;;;;4903807;28;20290;-54
2023/01/19 05:22:42;;;;;;;319.03;137.77;;;;;;;;;;4900745;28;20387;-53
2023/01/19 05:25:08;;;;;;;356.97;153.17;;;;;;;;;;4898944;28;20453;-54
2023/01/19 05:27:34;;;;;;;334.33;134.97;;;;;;;;;;4899648;28;20521;-54
2023/01/19 05:30:00;;;;;;;321.07;132.70;;;;;;;;;;4903017;28;20629;-54
2023/01/19 05:32:26;;;;;;;365.70;144.90;;;;;;;;;;4896760;28;20188;-54
2023/01/19 05:34:52;;;;;;;328.97;137.83;;;;;;;;;;4891041;28;20905;-54
2023/01/19 05:37:18;;;;;;;294.83;129.30;;;;;;;;;;4896772;28;20246;-54
2023/01/19 05:39:44;;;;;;;317.97;133.37;;;;;;;;;;4901491;28;21709;-54
2023/01/19 05:42:10;;;;;;;390.27;162.03;;;;;;;;;;4901544;28;20319;-54
2023/01/19 05:44:36;;;;;;;395.40;179.97;;;;;;;;;;4898605;28;20219;-53
2023/01/19 05:47:02;;;;;;;361.53;137.10;;;;;;;;;;4899661;28;20180;-53
2023/01/19 05:49:28;;;;;;;368.17;148.37;;;;;;;;;;4898068;28;20274;-53
2023/01/19 05:51:54;;;;;;;387.63;159.37;;;;;;;;;;4893745;28;20316;-53
2023/01/19 05:54:20;;;;;;;394.47;154.17;;;;;;;;;;4898462;28;20311;-54
2023/01/19 05:56:46;;;;;;;348.40;138.47;;;;;;;;;;4909140;28;20236;-54
2023/01/19 05:59:12;;;;;;;301.47;119.50;;;;;;;;;;4899204;28;20389;-53
2023/01/19 06:01:38;;;;;;;363.20;128.80;;;;;;;;;;4897859;28;20357;-54
2023/01/19 06:04:04;;;;;;;361.90;140.90;;;;;;;;;;4898506;28;20307;-53
2023/01/19 06:06:31;;;;;;;313.40;111.83;;;;;;;;;;4896577;28;20215;-53
2023/01/19 06:08:57;;;;;;;369.93;134.63;;;;;;;;;;4893581;28;20216;-53
2023/01/19 06:11:23;;;;;;;363.97;140.67;;;;;;;;;;4901074;28;20236;-54
2023/01/19 06:13:49;;;;;;;350.70;128.27;;;;;;;;;;4902733;28;20224;-54
2023/01/19 06:16:15;;;;;;;334.97;126.23;;;;;;;;;;4903187;28;20277;-53
2023/01/19 06:18:41;;;;;;;314.17;109.77;;;;;;;;;;4893433;28;20235;-53
2023/01/19 06:21:07;;;;;;;326.73;112.00;;;;;;;;;;4890029;28;20272;-53
2023/01/19 06:23:34;;;;;;;343.83;116.67;;;;;;;;;;4894191;28;20238;-54
2023/01/19 06:26:00;;;;;;;475.60;192.93;;;;;;;;;;4885389;28;20800;-53
2023/01/19 06:28:26;;;;;;;369.47;127.17;;;;;;;;;;4894319;28;20211;-54
2023/01/19 06:30:53;;;;;;;363.83;125.13;;;;;;;;;;4891417;28;20381;-54
2023/01/19 06:33:20;;;;;;;315.43;97.17;;;;;;;;;;4900643;28;20220;-53
2023/01/19 06:35:47;;;;;;;311.50;97.07;;;;;;;;;;4899857;28;20306;-53
2023/01/19 06:38:13;;;;;;;343.37;106.90;;;;;;;;;;4894692;28;20247;-53
2023/01/19 06:40:39;;;;;;;321.43;91.23;;;;;;;;;;4915255;28;20224;-54
2023/01/19 06:43:06;;;;;;;337.60;104.87;;;;;;;;;;4911159;28;20227;-55
2023/01/19 06:45:32;;;;;;;276.60;87.00;;;;;;;;;;4896519;28;20208;-53
2023/01/19 06:47:59;;;;;;;357.97;109.43;;;;;;;;;;4901013;28;20234;-53
2023/01/19 06:50:25;;;;;;;352.57;100.73;;;;;;;;;;4894276;28;20187;-54
2023/01/19 06:52:51;;;;;;;308.00;86.47;;;;;;;;;;4897354;28;20249;-51
2023/01/19 06:55:17;;;;;;;211.80;56.63;;;;;;;;;;4925091;28;20693;-51
2023/01/19 06:57:43;;;;;;;282.17;72.50;;;;;;;;;;4926789;29;20216;-50
2023/01/19 07:00:10;;;;;;;303.67;82.53;;;;;;;;;;4925759;29;20227;-51
2023/01/19 07:02:36;;;;;;;327.53;86.50;;;;;;;;;;4925666;29;20180;-51
2023/01/19 07:05:02;;;;;;;306.23;78.23;;;;;;;;;;4925622;29;20227;-51
2023/01/19 07:07:28;;;;;;;259.10;66.57;;;;;;;;;;4925749;29;20728;-51
2023/01/19 07:09:54;;;;;;;250.90;68.90;;;;;;;;;;4925033;28;20215;-51
2023/01/19 07:12:21;;;;;;;257.10;76.97;;;;;;;;;;4925676;28;20293;-51
2023/01/19 07:14:48;;;;;;;276.03;74.40;;;;;;;;;;4925770;28;20308;-51
2023/01/19 07:17:17;;;;;;;245.87;67.43;;;;;;;;;;4926792;29;20180;-51
2023/01/19 07:19:43;;;;;;;249.53;64.70;;;;;;;;;;4925723;28;20318;-51
2023/01/19 07:22:09;;;;;;;269.57;75.43;;;;;;;;;;4923567;28;20352;-51
2023/01/19 07:24:36;;;;;;;293.87;76.43;;;;;;;;;;4925255;29;20270;-51
2023/01/19 07:27:03;;;;;;;219.77;60.83;;;;;;;;;;4924726;29;20207;-51
2023/01/19 07:29:29;;;;;;;232.77;58.87;;;;;;;;;;4926044;29;20180;-51
2023/01/19 07:31:55;;;;;;;504.90;150.37;;;;;;;;;;4899855;28;20180;-52
2023/01/19 07:34:21;;;;;;;483.50;145.33;;;;;;;;;;4889371;28;21402;-53
2023/01/19 07:36:47;;;;;;;293.47;82.10;;;;;;;;;;4897949;28;20212;-51
2023/01/19 07:39:13;;;;;;;292.07;83.23;;;;;;;;;;4925369;29;20223;-51
2023/01/19 07:41:39;;;;;;;249.50;66.30;;;;;;;;;;4925017;29;20226;-51
2023/01/19 07:44:05;;;;;;;286.90;83.10;;;;;;;;;;4925801;29;20195;-51
2023/01/19 07:46:31;;;;;;;305.47;82.27;;;;;;;;;;4925130;29;20211;-50
2023/01/19 07:48:57;;;;;;;279.77;70.30;;;;;;;;;;4923534;29;20768;-51
2023/01/19 07:51:23;;;;;;;296.93;77.37;;;;;;;;;;4925631;29;20302;-51
2023/01/19 07:53:50;;;;;;;261.57;69.33;;;;;;;;;;4924647;28;20243;-51
2023/01/19 07:56:16;;;;;;;312.80;84.40;;;;;;;;;;4925308;29;20187;-51
2023/01/19 07:58:42;;;;;;;293.07;78.97;;;;;;;;;;4924403;29;20223;-51
2023/01/19 08:01:09;;;;;;;212.77;55.87;;;;;;;;;;4925395;28;20212;-51
2023/01/19 08:03:35;;;;;;;275.80;79.50;;;;;;;;;;4925055;28;20369;-51
2023/01/19 08:06:02;;;;;;;281.57;75.57;;;;;;;;;;4924922;28;20258;-50
2023/01/19 08:08:29;;;;;;;295.43;80.23;;;;;;;;;;4924942;28;20188;-51
2023/01/19 08:10:59;;;;;;;259.30;74.00;;;;;;;;;;4934370;29;20187;-51
2023/01/19 08:13:25;;;;;;;264.53;70.77;;;;;;;;;;4937053;28;20219;-51
2023/01/19 08:15:51;;;;;;;279.80;79.27;;;;;;;;;;4923822;28;20220;-51
2023/01/19 08:18:18;;;;;;;282.37;74.63;;;;;;;;;;4924703;28;20568;-51
2023/01/19 08:20:44;;;;;;;264.50;72.03;;;;;;;;;;4924367;28;20287;-51
2023/01/19 08:23:11;;;;;;;227.07;66.37;;;;;;;;;;4925590;29;20200;-51
2023/01/19 08:25:43;;;;;;;222.97;63.33;;;;;;;;;;4923540;28;20226;-51
2023/01/19 08:28:09;;;;;;;289.97;77.23;;;;;;;;;;4924472;28;20299;-51
2023/01/19 08:30:35;;;;;;;299.80;81.10;;;;;;;;;;4924097;28;20223;-51
2023/01/19 08:33:06;;;;;;;231.67;67.10;;;;;;;;;;4925000;29;20224;-51
2023/01/19 08:35:42;;;;;;;263.30;74.10;;;;;;;;;;4925060;29;20164;-51
2023/01/19 08:38:09;;;;;;;251.73;69.77;;;;;;;;;;4925250;29;20244;-51
2023/01/19 08:40:37;;;;;;;278.03;76.47;;;;;;;;;;4922441;29;20324;-51
2023/01/19 08:43:08;;;;;;;263.67;71.70;;;;;;;;;;4924919;29;20251;-51
2023/01/19 08:45:40;;;;;;;278.20;74.43;;;;;;;;;;4924361;29;20704;-51
2023/01/19 08:48:06;;;;;;;245.37;65.00;;;;;;;;;;4924864;29;20346;-52
2023/01/19 08:50:35;;;;;;;164.03;53.80;;;;;;;;;;4926192;28;20282;-51
2023/01/19 08:53:03;;;;;;;258.50;70.80;;;;;;;;;;4924044;28;20204;-51
2023/01/19 08:55:29;;;;;;;249.47;73.60;;;;;;;;;;4927452;28;20613;-51
2023/01/19 08:57:56;;;;;;;293.17;85.93;;;;;;;;;;4923126;28;20557;-51
2023/01/19 09:00:24;;;;;;;245.90;71.87;;;;;;;;;;4923436;28;20225;-52
2023/01/19 09:02:50;;;;;;;287.07;81.27;;;;;;;;;;4935789;28;20733;-51
2023/01/19 09:05:16;;;;;;;258.23;74.70;;;;;;;;;;4931684;28;20270;-51
2023/01/19 09:07:47;;;;;;;284.17;84.57;;;;;;;;;;4933080;28;20227;-52
2023/01/19 09:10:13;;;;;;;230.93;66.53;;;;;;;;;;4918603;28;20214;-52
2023/01/19 09:12:39;;;;;;;291.93;88.10;;;;;;;;;;4917893;28;20219;-52
2023/01/19 09:15:06;;;;;;;314.83;92.10;;;;;;;;;;4915284;28;20219;-52
2023/01/19 09:17:32;;;;;;;327.43;91.73;;;;;;;;;;4926546;28;20203;-52
2023/01/19 09:19:58;;;;;;;304.47;94.83;;;;;;;;;;4919173;28;20211;-52
2023/01/19 09:22:24;;;;;;;287.00;83.00;;;;;;;;;;4919599;28;20277;-52
2023/01/19 09:24:50;;;;;;;290.87;81.00;;;;;;;;;;4919481;28;20258;-51
2023/01/19 09:27:16;;;;;;;293.53;91.03;;;;;;;;;;4934840;28;20215;-51
2023/01/19 09:29:49;;;;;;;331.87;103.23;;;;;;;;;;4922206;28;20191;-52
2023/01/19 09:32:15;;;;;;;298.00;87.33;;;;;;;;;;4925056;28;20653;-52
2023/01/19 09:34:41;;;;;;;283.83;92.80;;;;;;;;;;4919292;28;20246;-51
2023/01/19 09:37:07;;;;;;;265.03;77.40;;;;;;;;;;4943796;28;20445;-52
2023/01/19 09:39:33;;;;;;;261.20;76.77;;;;;;;;;;4937238;28;20698;-51
2023/01/19 09:42:05;;;;;;;278.60;83.17;;;;;;;;;;4934896;28;20221;-52
2023/01/19 09:44:33;;;;;;;241.90;76.87;;;;;;;;;;4935153;28;20207;-52
2023/01/19 09:47:01;;;;;;;283.97;83.23;;;;;;;;;;4946249;28;20233;-52
2023/01/19 09:49:33;;;;;;;259.20;79.03;;;;;;;;;;4951510;28;20228;-52
2023/01/19 09:51:59;;;;;;;317.17;92.83;;;;;;;;;;4942825;28;20674;-52
2023/01/19 09:54:38;;;;;;;290.57;92.20;;;;;;;;;;4922975;28;20334;-52
2023/01/19 09:57:08;;;;;;;285.27;88.60;;;;;;;;;;4925495;28;20272;-51
2023/01/19 09:59:37;;;;;;;272.73;84.27;;;;;;;;;;4933196;28;20686;-52
2023/01/19 10:02:03;;;;;;;278.47;82.73;;;;;;;;;;4926878;28;20215;-52
2023/01/19 10:04:40;;;;;;;300.63;94.50;;;;;;;;;;4927804;28;20641;-52
2023/01/19 10:07:12;;;;;;;276.03;85.93;;;;;;;;;;4941609;28;20222;-52
2023/01/19 10:09:48;;;;;;;271.33;81.77;;;;;;;;;;4919949;28;20231;-52
2023/01/19 10:12:20;;;;;;;261.23;77.53;;;;;;;;;;4929671;28;20216;-52
2023/01/19 10:14:54;;;;;;;237.77;69.17;;;;;;;;;;4954016;28;20366;-52
2023/01/19 10:17:38;;;;;;;244.30;71.27;;;;;;;;;;4930122;28;20180;-52
2023/01/19 10:20:13;;;;;;;234.77;73.00;;;;;;;;;;4949447;28;20351;-52
2023/01/19 10:22:39;;;;;;;243.00;70.90;;;;;;;;;;4981705;28;20211;-51
2023/01/19 10:25:13;;;;;;;227.57;72.37;;;;;;;;;;4965865;28;20204;-52
2023/01/19 10:27:40;;;;;;;240.90;74.97;;;;;;;;;;4941063;28;20302;-52
2023/01/19 10:30:07;;;;;;;228.10;68.83;;;;;;;;;;4929813;28;20238;-52
2023/01/19 10:32:34;;;;;;;243.43;73.63;;;;;;;;;;4934973;28;20179;-52
2023/01/19 10:35:02;;;;;;;260.63;82.90;;;;;;;;;;4938207;28;20270;-52
2023/01/19 10:37:32;;;;;;;232.73;67.30;;;;;;;;;;4941698;28;20240;-52
2023/01/19 10:40:18;;;;;;;292.27;92.53;;;;;;;;;;4924589;28;20231;-52
2023/01/19 10:42:44;;;;;;;246.63;75.17;;;;;;;;;;4929325;28;20569;-51
2023/01/19 10:45:16;;;;;;;282.90;83.90;;;;;;;;;;4927632;28;20221;-52
2023/01/19 10:47:43;;;;;;;291.67;90.93;;;;;;;;;;4925928;28;20291;-52
2023/01/19 10:50:22;;;;;;;285.93;90.13;;;;;;;;;;4938496;28;20523;-51
2023/01/19 10:52:52;;;;;;;249.60;78.50;;;;;;;;;;4924306;28;20226;-51
2023/01/19 10:55:26;;;;;;;277.87;94.10;;;;;;;;;;4933875;28;20223;-52
2023/01/19 10:57:52;;;;;;;301.43;103.27;;;;;;;;;;4923649;28;20246;-52
2023/01/19 11:00:37;;;;;;;340.27;107.23;;;;;;;;;;4924788;28;20322;-54
2023/01/19 11:03:21;;;;;;;337.97;105.60;;;;;;;;;;4924188;28;20437;-54
2023/01/19 11:05:47;;;;;;;345.77;108.07;;;;;;;;;;4924250;28;20220;-53
2023/01/19 11:08:21;;;;;;;272.63;88.00;;;;;;;;;;4927805;28;20180;-51
2023/01/19 11:10:52;;;;;;;296.73;101.47;;;;;;;;;;4929228;28;20239;-51
2023/01/19 11:13:18;;;;;;;288.73;94.30;;;;;;;;;;4928928;28;20658;-51
2023/01/19 11:15:49;;;;;;;292.93;94.97;;;;;;;;;;4925021;28;20744;-52
2023/01/19 11:18:28;;;;;;;307.77;101.57;;;;;;;;;;4922902;29;20230;-50
2023/01/19 11:20:55;;;;;;;303.60;101.20;;;;;;;;;;4924340;28;20570;-51
2023/01/19 11:23:40;;;;;;;272.03;91.50;;;;;;;;;;4943617;28;20219;-50
2023/01/19 11:26:07;;;;;;;258.73;88.53;;;;;;;;;;4961145;28;20242;-51
2023/01/19 11:28:35;;;;;;;272.03;95.23;;;;;;;;;;4921065;28;20216;-51
2023/01/19 11:31:02;;;;;;;275.40;92.53;;;;;;;;;;4923004;28;20290;-51
2023/01/19 11:33:36;;;;;;;283.40;97.40;;;;;;;;;;4922061;29;20234;-53
2023/01/19 11:36:04;;;;;;;235.50;83.77;;;;;;;;;;4917603;28;20273;-52
2023/01/19 11:38:31;;;;;;;275.83;100.20;;;;;;;;;;4924608;28;20707;-51
2023/01/19 11:40:58;;;;;;;283.07;106.77;;;;;;;;;;4924230;29;20196;-51
2023/01/19 11:43:27;;;;;;;285.40;99.80;;;;;;;;;;4935534;28;20317;-51
2023/01/19 11:45:54;;;;;;;280.47;97.30;;;;;;;;;;4922568;28;20544;-51
2023/01/19 11:48:26;;;;;;;275.10;101.97;;;;;;;;;;4924783;28;20220;-50
2023/01/19 11:50:53;;;;;;;263.13;97.07;;;;;;;;;;4921309;29;20619;-52
2023/01/19 11:53:23;;;;;;;224.87;83.70;;;;;;;;;;4924373;29;20265;-51
2023/01/19 11:55:58;;;;;;;270.60;102.70;;;;;;;;;;4926122;28;20235;-51
2023/01/19 11:58:24;;;;;;;213.40;82.10;;;;;;;;;;4925818;28;20213;-51
2023/01/19 12:00:50;;;;;;;254.37;100.77;;;;;;;;;;5000510;28;20224;-51
2023/01/19 12:03:15;;;;;;;250.97;103.63;;;;;;;;;;4943911;28;20234;-52
2023/01/19 12:05:44;;;;;;;268.77;123.13;;;;;;;;;;4928713;28;20539;-51
2023/01/19 12:08:14;;;;;;;263.97;117.17;;;;;;;;;;4926377;29;20712;-51
2023/01/19 12:10:43;;;;;;;237.93;110.23;;;;;;;;;;4923041;28;20303;-51
2023/01/19 12:13:25;;;;;;;299.30;140.90;;;;;;;;;;4926333;29;20581;-52
2023/01/19 12:16:09;;;;;;;313.40;145.17;;;;;;;;;;4914540;28;20227;-51
2023/01/19 12:18:44;;;;;;;311.67;144.40;;;;;;;;;;4918788;29;20285;-52
2023/01/19 12:21:10;;;;;;;329.83;149.93;;;;;;;;;;4925329;29;20235;-52
2023/01/19 12:23:42;;;;;;;341.00;156.47;;;;;;;;;;4923023;29;20372;-52
2023/01/19 12:26:26;;;;;;;389.63;177.77;;;;;;;;;;4941232;28;20180;-52
2023/01/19 12:28:54;;;;;;;356.70;164.57;;;;;;;;;;4921670;29;20670;-51
2023/01/19 12:31:21;;;;;;;326.97;152.93;;;;;;;;;;4923901;28;20491;-52
2023/01/19 12:33:48;;;;;;;365.07;168.30;;;;;;;;;;4952502;28;20228;-52
2023/01/19 12:36:49;;;;;;;354.27;158.07;;;;;;;;;;4935612;28;20239;-53
2023/01/19 12:39:19;;;;;;;402.80;176.37;;;;;;;;;;4925206;28;20225;-51
2023/01/19 12:41:46;;;;;;;354.37;158.03;;;;;;;;;;4925913;28;20223;-51
2023/01/19 12:44:15;;;;;;;331.07;151.63;;;;;;;;;;4927883;28;20286;-52
2023/01/19 12:46:53;;;;;;;368.17;164.67;;;;;;;;;;5025027;28;20283;-52
2023/01/19 12:49:25;;;;;;;407.53;183.77;;;;;;;;;;4949027;28;20220;-52
2023/01/19 12:51:53;;;;;;;411.17;193.63;;;;;;;;;;4923145;29;20216;-50
2023/01/19 12:54:22;;;;;;;393.70;176.70;;;;;;;;;;4921806;28;20367;-52
2023/01/19 12:56:48;;;;;;;408.60;183.47;;;;;;;;;;4905862;28;20251;-51
2023/01/19 12:59:25;;;;;;;418.33;190.93;;;;;;;;;;4906141;28;20200;-52
2023/01/19 13:02:23;;;;;;;414.90;188.83;;;;;;;;;;4906027;28;20212;-52
2023/01/19 13:05:08;;;;;;;418.90;193.10;;;;;;;;;;4918152;28;20223;-52
2023/01/19 13:07:52;;;;;;;458.50;204.50;;;;;;;;;;4940509;28;20222;-51
2023/01/19 13:10:37;;;;;;;457.10;204.73;;;;;;;;;;4923904;29;20226;-52
2023/01/19 13:13:20;;;;;;;444.07;206.63;;;;;;;;;;4924516;29;20273;-52
2023/01/19 13:15:46;;;;;;;458.30;212.67;;;;;;;;;;4905953;28;20366;-52
2023/01/19 13:18:20;;;;;;;478.37;215.23;;;;;;;;;;4905364;28;20216;-52
2023/01/19 13:20:49;;;;;;;511.17;236.93;;;;;;;;;;4904901;28;20232;-53
2023/01/19 13:23:17;;;;;;;484.70;226.13;;;;;;;;;;4904704;29;20199;-52
2023/01/19 13:25:47;;;;;;;488.40;222.73;;;;;;;;;;4905471;28;20701;-52
2023/01/19 13:28:13;;;;;;;462.83;214.73;;;;;;;;;;4987020;28;20227;-52
2023/01/19 13:30:53;;;;;;;490.47;234.10;;;;;;;;;;5023992;28;20223;-52
2023/01/19 13:33:21;;;;;;;468.57;231.93;;;;;;;;;;4977310;28;20223;-52
2023/01/19 13:35:49;;;;;;;472.20;229.03;;;;;;;;;;4924189;28;20288;-52
2023/01/19 13:38:15;;;;;;;466.50;223.70;;;;;;;;;;4922745;29;20183;-52
2023/01/19 13:40:43;;;;;;;473.93;220.00;;;;;;;;;;4922642;28;20231;-52
2023/01/19 13:43:20;;;;;;;525.93;247.90;;;;;;;;;;4914892;28;20223;-52
2023/01/19 13:45:47;;;;;;;519.70;247.87;;;;;;;;;;4924519;28;20279;-52
2023/01/19 13:48:18;;;;;;;501.03;236.20;;;;;;;;;;4926777;28;20261;-52
2023/01/19 13:50:55;;;;;;;497.73;234.83;;;;;;;;;;4927832;28;20168;-52
2023/01/19 13:53:23;;;;;;;486.87;223.30;;;;;;;;;;4927321;29;20199;-52
2023/01/19 13:56:04;;;;;;;428.63;202.33;;;;;;;;;;4927017;28;20237;-52
2023/01/19 13:58:30;;;;;;;373.50;186.23;;;;;;;;;;4927637;28;20227;-52
2023/01/19 14:00:56;;;;;;;418.43;198.83;;;;;;;;;;4925515;28;20334;-52
2023/01/19 14:03:23;;;;;;;471.10;218.03;;;;;;;;;;4927221;28;20235;-52
2023/01/19 14:05:51;;;;;;;517.57;228.03;;;;;;;;;;4924894;28;20227;-52
2023/01/19 14:08:18;;;;;;;473.23;210.03;;;;;;;;;;4927546;29;20211;-52
2023/01/19 14:11:01;;;;;;;495.73;224.83;;;;;;;;;;4927073;28;20226;-51
2023/01/19 14:13:40;;;;;;;482.63;214.77;;;;;;;;;;4926307;28;20334;-52
2023/01/19 14:16:07;;;;;;;498.50;222.23;;;;;;;;;;4908724;28;20212;-52